sensor_id;sensor_type;location;lat;lon;timestamp;temperature;humidity
41256;DHT22;26989;45.524;10.938;2023-08-30T00:01:12;17.60;99.90
41256;DHT22;26989;45.524;10.938;2023-08-30T00:03:39;17.60;99.90
41256;DHT22;26989;45.524;10.938;2023-08-30T00:06:06;17.50;99.90
41256;DHT22;26989;45.524;10.938;2023-08-30T00:08:34;17.50;99.90
41256;DHT22;26989;45.524;10.938;2023-08-30T00:11:01;17.50;99.90
41256;DHT22;26989;45.524;10.938;2023-08-30T00:13:32;17.50;99.90
41256;DHT22;26989;45.524;10.938;2023-08-30T00:16:00;17.60;99.90
41256;DHT22;26989;45.524;10.938;2023-08-30T00:18:29;17.50;99.90
41256;DHT22;26989;45.524;10.938;2023-08-30T00:20:57;17.50;99.90
41256;DHT22;26989;45.524;10.938;2023-08-30T00:23:24;17.40;99.90
41256;DHT22;26989;45.524;10.938;2023-08-30T00:25:51;17.40;99.90
41256;DHT22;26989;45.524;10.938;2023-08-30T00:28:18;17.40;99.90
41256;DHT22;26989;45.524;10.938;2023-08-30T00:30:45;17.30;99.90
41256;DHT22;26989;45.524;10.938;2023-08-30T00:33:12;17.30;99.90
41256;DHT22;26989;45.524;10.938;2023-08-30T00:35:39;17.10;99.90
41256;DHT22;26989;45.524;10.938;2023-08-30T00:38:06;16.90;99.90
41256;DHT22;26989;45.524;10.938;2023-08-30T00:40:40;16.90;99.90
41256;DHT22;26989;45.524;10.938;2023-08-30T00:43:07;16.80;99.90
41256;DHT22;26989;45.524;10.938;2023-08-30T00:45:37;16.70;99.90
41256;DHT22;26989;45.524;10.938;2023-08-30T00:48:06;16.60;99.90
41256;DHT22;26989;45.524;10.938;2023-08-30T00:50:34;16.50;99.90
41256;DHT22;26989;45.524;10.938;2023-08-30T00:53:01;16.40;99.90
41256;DHT22;26989;45.524;10.938;2023-08-30T00:55:33;16.40;99.90
41256;DHT22;26989;45.524;10.938;2023-08-30T00:58:01;16.40;99.90
41256;DHT22;26989;45.524;10.938;2023-08-30T01:00:31;16.40;99.90
41256;DHT22;26989;45.524;10.938;2023-08-30T01:02:59;16.50;99.90
41256;DHT22;26989;45.524;10.938;2023-08-30T01:05:26;16.50;99.90
41256;DHT22;26989;45.524;10.938;2023-08-30T01:07:54;16.40;99.90
41256;DHT22;26989;45.524;10.938;2023-08-30T01:13:23;16.20;99.90
41256;DHT22;26989;45.524;10.938;2023-08-30T01:15:51;16.30;99.90
41256;DHT22;26989;45.524;10.938;2023-08-30T01:18:20;16.30;99.90
41256;DHT22;26989;45.524;10.938;2023-08-30T01:20:49;16.30;99.90
41256;DHT22;26989;45.524;10.938;2023-08-30T01:23:29;16.30;99.90
41256;DHT22;26989;45.524;10.938;2023-08-30T01:26:16;16.30;99.90
41256;DHT22;26989;45.524;10.938;2023-08-30T01:28:48;16.20;99.90
41256;DHT22;26989;45.524;10.938;2023-08-30T01:31:16;15.90;99.90
41256;DHT22;26989;45.524;10.938;2023-08-30T01:33:43;16.00;99.90
41256;DHT22;26989;45.524;10.938;2023-08-30T01:36:11;16.00;99.90
41256;DHT22;26989;45.524;10.938;2023-08-30T01:38:39;15.90;99.90
41256;DHT22;26989;45.524;10.938;2023-08-30T01:41:06;16.00;99.90
41256;DHT22;26989;45.524;10.938;2023-08-30T01:43:34;16.00;99.90
41256;DHT22;26989;45.524;10.938;2023-08-30T01:46:02;16.00;99.90
41256;DHT22;26989;45.524;10.938;2023-08-30T01:48:33;15.90;99.90
41256;DHT22;26989;45.524;10.938;2023-08-30T01:51:00;15.90;99.90
41256;DHT22;26989;45.524;10.938;2023-08-30T01:53:28;16.00;99.90
41256;DHT22;26989;45.524;10.938;2023-08-30T01:55:55;16.00;99.90
41256;DHT22;26989;45.524;10.938;2023-08-30T01:58:22;15.90;99.90
41256;DHT22;26989;45.524;10.938;2023-08-30T02:00:49;16.00;99.90
41256;DHT22;26989;45.524;10.938;2023-08-30T02:03:16;16.00;99.90
41256;DHT22;26989;45.524;10.938;2023-08-30T02:05:57;15.90;99.90
41256;DHT22;26989;45.524;10.938;2023-08-30T02:08:59;15.90;99.90
41256;DHT22;26989;45.524;10.938;2023-08-30T02:11:32;15.90;99.90
41256;DHT22;26989;45.524;10.938;2023-08-30T02:14:00;16.00;99.90
41256;DHT22;26989;45.524;10.938;2023-08-30T02:16:27;16.00;99.90
41256;DHT22;26989;45.524;10.938;2023-08-30T02:18:55;16.00;99.90
41256;DHT22;26989;45.524;10.938;2023-08-30T02:21:23;16.00;99.90
41256;DHT22;26989;45.524;10.938;2023-08-30T02:23:50;15.90;99.90
41256;DHT22;26989;45.524;10.938;2023-08-30T02:26:20;16.00;99.90
41256;DHT22;26989;45.524;10.938;2023-08-30T02:28:47;15.90;99.90
41256;DHT22;26989;45.524;10.938;2023-08-30T02:31:14;16.00;99.90
41256;DHT22;26989;45.524;10.938;2023-08-30T02:33:41;15.90;99.90
41256;DHT22;26989;45.524;10.938;2023-08-30T02:36:08;16.10;99.90
41256;DHT22;26989;45.524;10.938;2023-08-30T02:38:35;16.10;99.90
41256;DHT22;26989;45.524;10.938;2023-08-30T02:41:02;16.10;99.90
41256;DHT22;26989;45.524;10.938;2023-08-30T02:43:29;16.10;99.90
41256;DHT22;26989;45.524;10.938;2023-08-30T02:45:56;16.10;99.90
41256;DHT22;26989;45.524;10.938;2023-08-30T02:48:23;16.10;99.90
41256;DHT22;26989;45.524;10.938;2023-08-30T02:50:50;16.00;99.90
41256;DHT22;26989;45.524;10.938;2023-08-30T02:53:16;15.90;99.90
41256;DHT22;26989;45.524;10.938;2023-08-30T02:55:46;16.00;99.90
41256;DHT22;26989;45.524;10.938;2023-08-30T02:58:14;15.90;99.90
41256;DHT22;26989;45.524;10.938;2023-08-30T03:00:41;15.90;99.90
41256;DHT22;26989;45.524;10.938;2023-08-30T03:03:08;16.00;99.90
41256;DHT22;26989;45.524;10.938;2023-08-30T03:05:35;16.10;99.90
41256;DHT22;26989;45.524;10.938;2023-08-30T03:08:02;16.00;99.90
41256;DHT22;26989;45.524;10.938;2023-08-30T03:10:29;16.10;99.90
41256;DHT22;26989;45.524;10.938;2023-08-30T03:12:55;16.10;99.90
41256;DHT22;26989;45.524;10.938;2023-08-30T03:15:22;16.00;99.90
41256;DHT22;26989;45.524;10.938;2023-08-30T03:17:49;16.10;99.90
41256;DHT22;26989;45.524;10.938;2023-08-30T03:20:16;16.10;99.90
41256;DHT22;26989;45.524;10.938;2023-08-30T03:22:43;16.00;99.90
41256;DHT22;26989;45.524;10.938;2023-08-30T03:25:10;15.90;99.90
41256;DHT22;26989;45.524;10.938;2023-08-30T03:27:37;16.00;99.90
41256;DHT22;26989;45.524;10.938;2023-08-30T03:30:04;16.10;99.90
41256;DHT22;26989;45.524;10.938;2023-08-30T03:32:32;16.10;99.90
41256;DHT22;26989;45.524;10.938;2023-08-30T03:34:59;16.00;99.90
41256;DHT22;26989;45.524;10.938;2023-08-30T03:37:26;16.00;99.90
41256;DHT22;26989;45.524;10.938;2023-08-30T03:39:53;15.90;99.90
41256;DHT22;26989;45.524;10.938;2023-08-30T03:42:20;16.00;99.90
41256;DHT22;26989;45.524;10.938;2023-08-30T03:44:47;15.90;99.90
41256;DHT22;26989;45.524;10.938;2023-08-30T03:47:14;16.00;99.90
41256;DHT22;26989;45.524;10.938;2023-08-30T03:49:41;16.00;99.90
41256;DHT22;26989;45.524;10.938;2023-08-30T03:52:08;16.10;99.90
41256;DHT22;26989;45.524;10.938;2023-08-30T03:54:36;16.20;99.90
41256;DHT22;26989;45.524;10.938;2023-08-30T03:57:03;16.20;99.90
41256;DHT22;26989;45.524;10.938;2023-08-30T03:59:30;16.20;99.90
41256;DHT22;26989;45.524;10.938;2023-08-30T04:01:57;16.20;99.90
41256;DHT22;26989;45.524;10.938;2023-08-30T04:04:24;16.30;99.90
41256;DHT22;26989;45.524;10.938;2023-08-30T04:06:50;16.30;99.90
41256;DHT22;26989;45.524;10.938;2023-08-30T04:09:17;16.30;99.90
41256;DHT22;26989;45.524;10.938;2023-08-30T04:11:44;16.30;99.90
41256;DHT22;26989;45.524;10.938;2023-08-30T04:14:11;16.10;99.90
41256;DHT22;26989;45.524;10.938;2023-08-30T04:16:38;16.00;99.90
41256;DHT22;26989;45.524;10.938;2023-08-30T04:19:05;16.10;99.90
41256;DHT22;26989;45.524;10.938;2023-08-30T04:21:32;16.10;99.90
41256;DHT22;26989;45.524;10.938;2023-08-30T04:23:59;16.20;99.90
41256;DHT22;26989;45.524;10.938;2023-08-30T04:26:26;16.20;99.90
41256;DHT22;26989;45.524;10.938;2023-08-30T04:28:53;16.20;99.90
41256;DHT22;26989;45.524;10.938;2023-08-30T04:31:19;16.30;99.90
41256;DHT22;26989;45.524;10.938;2023-08-30T04:33:46;16.30;99.90
41256;DHT22;26989;45.524;10.938;2023-08-30T04:36:13;16.40;99.90
41256;DHT22;26989;45.524;10.938;2023-08-30T04:38:40;16.40;99.90
41256;DHT22;26989;45.524;10.938;2023-08-30T04:41:22;16.40;99.90
41256;DHT22;26989;45.524;10.938;2023-08-30T04:43:49;16.40;99.90
41256;DHT22;26989;45.524;10.938;2023-08-30T04:46:16;16.40;99.90
41256;DHT22;26989;45.524;10.938;2023-08-30T04:48:42;16.40;99.90
41256;DHT22;26989;45.524;10.938;2023-08-30T04:51:09;16.40;99.90
41256;DHT22;26989;45.524;10.938;2023-08-30T04:53:36;16.30;99.90
41256;DHT22;26989;45.524;10.938;2023-08-30T04:56:10;16.40;99.90
41256;DHT22;26989;45.524;10.938;2023-08-30T04:58:38;16.30;99.90
41256;DHT22;26989;45.524;10.938;2023-08-30T05:01:06;16.20;99.90
41256;DHT22;26989;45.524;10.938;2023-08-30T05:03:33;16.20;99.90
41256;DHT22;26989;45.524;10.938;2023-08-30T05:06:00;16.20;99.90
41256;DHT22;26989;45.524;10.938;2023-08-30T05:08:27;16.20;99.90
41256;DHT22;26989;45.524;10.938;2023-08-30T05:10:55;16.20;99.90
41256;DHT22;26989;45.524;10.938;2023-08-30T05:13:22;16.20;99.90
41256;DHT22;26989;45.524;10.938;2023-08-30T05:15:48;16.20;99.90
41256;DHT22;26989;45.524;10.938;2023-08-30T05:18:15;16.20;99.90
41256;DHT22;26989;45.524;10.938;2023-08-30T05:20:42;16.30;99.90
41256;DHT22;26989;45.524;10.938;2023-08-30T05:23:09;16.40;99.90
41256;DHT22;26989;45.524;10.938;2023-08-30T05:25:36;16.40;99.90
41256;DHT22;26989;45.524;10.938;2023-08-30T05:28:03;16.50;99.90
41256;DHT22;26989;45.524;10.938;2023-08-30T05:30:31;16.50;99.90
41256;DHT22;26989;45.524;10.938;2023-08-30T05:32:57;16.50;99.90
41256;DHT22;26989;45.524;10.938;2023-08-30T05:35:25;16.40;99.90
41256;DHT22;26989;45.524;10.938;2023-08-30T05:37:52;16.50;99.90
41256;DHT22;26989;45.524;10.938;2023-08-30T05:40:19;16.50;99.90
41256;DHT22;26989;45.524;10.938;2023-08-30T05:42:45;16.50;99.90
41256;DHT22;26989;45.524;10.938;2023-08-30T05:45:12;16.60;99.90
41256;DHT22;26989;45.524;10.938;2023-08-30T05:47:39;16.70;99.90
41256;DHT22;26989;45.524;10.938;2023-08-30T05:50:07;16.80;99.90
41256;DHT22;26989;45.524;10.938;2023-08-30T05:52:34;16.80;99.90
41256;DHT22;26989;45.524;10.938;2023-08-30T05:55:01;16.90;99.90
41256;DHT22;26989;45.524;10.938;2023-08-30T05:57:28;16.90;99.90
41256;DHT22;26989;45.524;10.938;2023-08-30T06:00:00;17.00;99.90
41256;DHT22;26989;45.524;10.938;2023-08-30T06:02:27;17.00;99.90
41256;DHT22;26989;45.524;10.938;2023-08-30T06:04:54;17.10;99.90
41256;DHT22;26989;45.524;10.938;2023-08-30T06:07:21;17.00;99.90
41256;DHT22;26989;45.524;10.938;2023-08-30T06:09:48;17.10;99.90
41256;DHT22;26989;45.524;10.938;2023-08-30T06:12:16;17.20;99.90
41256;DHT22;26989;45.524;10.938;2023-08-30T06:14:43;17.20;99.90
41256;DHT22;26989;45.524;10.938;2023-08-30T06:17:16;17.30;99.90
41256;DHT22;26989;45.524;10.938;2023-08-30T06:19:44;17.30;99.90
41256;DHT22;26989;45.524;10.938;2023-08-30T06:22:12;17.30;99.90
41256;DHT22;26989;45.524;10.938;2023-08-30T06:24:39;17.40;99.90
41256;DHT22;26989;45.524;10.938;2023-08-30T06:27:06;17.40;99.90
41256;DHT22;26989;45.524;10.938;2023-08-30T06:29:33;17.50;99.90
41256;DHT22;26989;45.524;10.938;2023-08-30T06:32:00;17.70;99.90
41256;DHT22;26989;45.524;10.938;2023-08-30T06:34:27;17.80;99.90
41256;DHT22;26989;45.524;10.938;2023-08-30T06:36:54;17.80;99.90
41256;DHT22;26989;45.524;10.938;2023-08-30T06:39:20;17.90;99.90
41256;DHT22;26989;45.524;10.938;2023-08-30T06:41:47;17.90;99.90
41256;DHT22;26989;45.524;10.938;2023-08-30T06:44:14;17.80;99.90
41256;DHT22;26989;45.524;10.938;2023-08-30T06:46:42;17.80;99.90
41256;DHT22;26989;45.524;10.938;2023-08-30T06:49:09;17.80;99.90
41256;DHT22;26989;45.524;10.938;2023-08-30T06:51:36;18.10;99.90
41256;DHT22;26989;45.524;10.938;2023-08-30T06:54:03;18.20;99.90
41256;DHT22;26989;45.524;10.938;2023-08-30T06:56:30;18.10;99.90
41256;DHT22;26989;45.524;10.938;2023-08-30T06:58:57;18.20;99.90
41256;DHT22;26989;45.524;10.938;2023-08-30T07:01:24;18.20;99.90
41256;DHT22;26989;45.524;10.938;2023-08-30T07:03:51;18.10;99.90
41256;DHT22;26989;45.524;10.938;2023-08-30T07:06:18;18.40;99.90
41256;DHT22;26989;45.524;10.938;2023-08-30T07:08:45;18.40;99.90
41256;DHT22;26989;45.524;10.938;2023-08-30T07:11:12;18.50;99.90
41256;DHT22;26989;45.524;10.938;2023-08-30T07:13:58;18.50;99.90
41256;DHT22;26989;45.524;10.938;2023-08-30T07:16:25;18.70;99.90
41256;DHT22;26989;45.524;10.938;2023-08-30T07:18:52;18.70;99.90
41256;DHT22;26989;45.524;10.938;2023-08-30T07:21:19;18.80;99.90
41256;DHT22;26989;45.524;10.938;2023-08-30T07:23:46;19.00;99.90
41256;DHT22;26989;45.524;10.938;2023-08-30T07:26:13;18.90;99.90
41256;DHT22;26989;45.524;10.938;2023-08-30T07:28:39;18.90;99.90
41256;DHT22;26989;45.524;10.938;2023-08-30T07:40:49;19.50;99.90
41256;DHT22;26989;45.524;10.938;2023-08-30T07:43:17;19.50;99.90
41256;DHT22;26989;45.524;10.938;2023-08-30T07:45:44;19.70;99.90
41256;DHT22;26989;45.524;10.938;2023-08-30T07:48:12;20.00;99.90
41256;DHT22;26989;45.524;10.938;2023-08-30T07:50:39;20.40;99.90
41256;DHT22;26989;45.524;10.938;2023-08-30T07:53:06;20.10;99.90
41256;DHT22;26989;45.524;10.938;2023-08-30T07:55:33;20.10;99.90
41256;DHT22;26989;45.524;10.938;2023-08-30T07:58:00;20.20;99.90
41256;DHT22;26989;45.524;10.938;2023-08-30T08:00:27;20.10;99.90
41256;DHT22;26989;45.524;10.938;2023-08-30T08:02:54;19.90;99.90
41256;DHT22;26989;45.524;10.938;2023-08-30T08:05:21;20.20;99.90
41256;DHT22;26989;45.524;10.938;2023-08-30T08:07:52;20.40;99.90
41256;DHT22;26989;45.524;10.938;2023-08-30T08:10:19;20.60;99.90
41256;DHT22;26989;45.524;10.938;2023-08-30T08:12:46;20.90;99.90
41256;DHT22;26989;45.524;10.938;2023-08-30T08:15:13;21.30;99.90
41256;DHT22;26989;45.524;10.938;2023-08-30T08:17:40;21.70;99.90
41256;DHT22;26989;45.524;10.938;2023-08-30T08:20:07;21.90;99.90
41256;DHT22;26989;45.524;10.938;2023-08-30T08:22:34;21.40;99.90
41256;DHT22;26989;45.524;10.938;2023-08-30T08:25:02;21.10;99.90
41256;DHT22;26989;45.524;10.938;2023-08-30T08:27:29;21.60;99.90
41256;DHT22;26989;45.524;10.938;2023-08-30T08:29:57;21.90;99.90
41256;DHT22;26989;45.524;10.938;2023-08-30T08:32:23;21.40;99.90
41256;DHT22;26989;45.524;10.938;2023-08-30T08:34:50;21.20;99.90
41256;DHT22;26989;45.524;10.938;2023-08-30T08:37:17;21.30;99.90
41256;DHT22;26989;45.524;10.938;2023-08-30T08:39:44;21.80;99.90
41256;DHT22;26989;45.524;10.938;2023-08-30T08:42:16;22.10;99.90
41256;DHT22;26989;45.524;10.938;2023-08-30T08:44:43;21.90;99.90
41256;DHT22;26989;45.524;10.938;2023-08-30T08:47:12;21.90;99.90
41256;DHT22;26989;45.524;10.938;2023-08-30T08:49:40;22.30;99.90
41256;DHT22;26989;45.524;10.938;2023-08-30T08:52:08;22.40;99.90
41256;DHT22;26989;45.524;10.938;2023-08-30T08:54:55;22.50;99.90
41256;DHT22;26989;45.524;10.938;2023-08-30T08:57:23;22.60;99.90
41256;DHT22;26989;45.524;10.938;2023-08-30T08:59:50;22.60;99.90
41256;DHT22;26989;45.524;10.938;2023-08-30T09:02:17;22.60;99.90
41256;DHT22;26989;45.524;10.938;2023-08-30T09:04:44;22.80;99.90
41256;DHT22;26989;45.524;10.938;2023-08-30T09:07:11;22.80;99.90
41256;DHT22;26989;45.524;10.938;2023-08-30T09:09:38;22.20;99.90
41256;DHT22;26989;45.524;10.938;2023-08-30T09:12:06;22.00;99.90
41256;DHT22;26989;45.524;10.938;2023-08-30T09:14:33;22.40;99.90
41256;DHT22;26989;45.524;10.938;2023-08-30T09:17:01;22.60;99.90
41256;DHT22;26989;45.524;10.938;2023-08-30T09:19:28;22.60;99.90
41256;DHT22;26989;45.524;10.938;2023-08-30T09:21:58;22.40;99.90
41256;DHT22;26989;45.524;10.938;2023-08-30T09:24:25;21.90;99.90
41256;DHT22;26989;45.524;10.938;2023-08-30T09:26:54;22.10;99.90
41256;DHT22;26989;45.524;10.938;2023-08-30T09:29:21;22.40;99.90
41256;DHT22;26989;45.524;10.938;2023-08-30T09:31:53;22.60;99.90
41256;DHT22;26989;45.524;10.938;2023-08-30T09:34:26;22.60;99.90
41256;DHT22;26989;45.524;10.938;2023-08-30T09:36:53;22.80;99.90
41256;DHT22;26989;45.524;10.938;2023-08-30T09:39:21;23.00;99.90
41256;DHT22;26989;45.524;10.938;2023-08-30T09:41:49;23.20;99.90
41256;DHT22;26989;45.524;10.938;2023-08-30T09:44:21;23.00;99.90
41256;DHT22;26989;45.524;10.938;2023-08-30T09:46:55;22.80;99.90
41256;DHT22;26989;45.524;10.938;2023-08-30T09:49:26;22.40;99.90
41256;DHT22;26989;45.524;10.938;2023-08-30T09:51:54;22.60;99.90
41256;DHT22;26989;45.524;10.938;2023-08-30T09:54:24;22.90;99.90
41256;DHT22;26989;45.524;10.938;2023-08-30T09:56:54;23.00;99.90
41256;DHT22;26989;45.524;10.938;2023-08-30T09:59:23;23.30;99.90
41256;DHT22;26989;45.524;10.938;2023-08-30T10:01:51;23.60;99.90
41256;DHT22;26989;45.524;10.938;2023-08-30T10:04:20;23.10;99.90
41256;DHT22;26989;45.524;10.938;2023-08-30T10:06:47;21.70;99.90
41256;DHT22;26989;45.524;10.938;2023-08-30T10:09:15;22.00;99.90
41256;DHT22;26989;45.524;10.938;2023-08-30T10:11:46;22.10;99.90
41256;DHT22;26989;45.524;10.938;2023-08-30T10:14:14;22.50;99.90
41256;DHT22;26989;45.524;10.938;2023-08-30T10:16:44;23.00;99.90
41256;DHT22;26989;45.524;10.938;2023-08-30T10:19:15;23.20;99.90
41256;DHT22;26989;45.524;10.938;2023-08-30T10:21:47;23.30;99.90
41256;DHT22;26989;45.524;10.938;2023-08-30T10:24:17;23.50;99.90
41256;DHT22;26989;45.524;10.938;2023-08-30T10:26:59;23.70;99.90
41256;DHT22;26989;45.524;10.938;2023-08-30T10:29:27;23.70;99.90
41256;DHT22;26989;45.524;10.938;2023-08-30T10:31:55;23.50;99.90
41256;DHT22;26989;45.524;10.938;2023-08-30T10:34:22;23.80;99.90
41256;DHT22;26989;45.524;10.938;2023-08-30T10:37:02;23.80;99.90
41256;DHT22;26989;45.524;10.938;2023-08-30T10:39:40;23.90;99.90
41256;DHT22;26989;45.524;10.938;2023-08-30T10:42:12;23.90;99.90
41256;DHT22;26989;45.524;10.938;2023-08-30T10:47:31;23.10;99.90
41256;DHT22;26989;45.524;10.938;2023-08-30T10:50:05;23.40;99.90
41256;DHT22;26989;45.524;10.938;2023-08-30T10:52:33;23.40;99.90
41256;DHT22;26989;45.524;10.938;2023-08-30T10:55:09;23.90;99.90
41256;DHT22;26989;45.524;10.938;2023-08-30T10:57:37;24.10;99.90
41256;DHT22;26989;45.524;10.938;2023-08-30T11:02:45;24.20;99.90
41256;DHT22;26989;45.524;10.938;2023-08-30T11:05:13;24.30;99.90
41256;DHT22;26989;45.524;10.938;2023-08-30T11:07:45;24.30;99.90
41256;DHT22;26989;45.524;10.938;2023-08-30T11:10:12;24.10;99.90
41256;DHT22;26989;45.524;10.938;2023-08-30T11:12:43;23.90;99.90
41256;DHT22;26989;45.524;10.938;2023-08-30T11:15:12;23.90;99.90
41256;DHT22;26989;45.524;10.938;2023-08-30T11:17:42;23.80;99.90
41256;DHT22;26989;45.524;10.938;2023-08-30T11:20:14;24.10;99.90
41256;DHT22;26989;45.524;10.938;2023-08-30T11:22:45;24.30;99.90
41256;DHT22;26989;45.524;10.938;2023-08-30T11:25:14;24.50;99.90
41256;DHT22;26989;45.524;10.938;2023-08-30T11:27:42;24.40;99.90
41256;DHT22;26989;45.524;10.938;2023-08-30T11:30:10;24.40;99.90
41256;DHT22;26989;45.524;10.938;2023-08-30T11:32:39;24.60;99.90
41256;DHT22;26989;45.524;10.938;2023-08-30T11:35:06;23.80;99.90
41256;DHT22;26989;45.524;10.938;2023-08-30T11:37:33;24.30;99.90
41256;DHT22;26989;45.524;10.938;2023-08-30T11:40:04;25.10;99.90
41256;DHT22;26989;45.524;10.938;2023-08-30T11:42:33;25.20;99.90
41256;DHT22;26989;45.524;10.938;2023-08-30T11:45:01;25.10;99.90
41256;DHT22;26989;45.524;10.938;2023-08-30T11:47:28;25.50;99.90
41256;DHT22;26989;45.524;10.938;2023-08-30T11:49:56;25.40;99.90
41256;DHT22;26989;45.524;10.938;2023-08-30T11:52:25;25.50;99.90
41256;DHT22;26989;45.524;10.938;2023-08-30T11:54:52;25.40;99.90
41256;DHT22;26989;45.524;10.938;2023-08-30T11:57:20;25.40;99.90
41256;DHT22;26989;45.524;10.938;2023-08-30T11:59:48;25.30;99.90
41256;DHT22;26989;45.524;10.938;2023-08-30T12:02:16;25.10;99.90
41256;DHT22;26989;45.524;10.938;2023-08-30T12:04:45;25.10;99.90
41256;DHT22;26989;45.524;10.938;2023-08-30T12:07:25;25.00;99.90
41256;DHT22;26989;45.524;10.938;2023-08-30T12:10:04;24.60;99.90
41256;DHT22;26989;45.524;10.938;2023-08-30T12:12:31;24.30;99.90
41256;DHT22;26989;45.524;10.938;2023-08-30T12:14:58;24.30;99.90
41256;DHT22;26989;45.524;10.938;2023-08-30T12:17:25;24.20;99.90
41256;DHT22;26989;45.524;10.938;2023-08-30T12:19:56;24.10;99.90
41256;DHT22;26989;45.524;10.938;2023-08-30T12:22:23;24.10;99.90
41256;DHT22;26989;45.524;10.938;2023-08-30T12:24:51;24.10;99.90
41256;DHT22;26989;45.524;10.938;2023-08-30T12:27:18;24.10;99.90
41256;DHT22;26989;45.524;10.938;2023-08-30T12:29:45;24.20;99.90
41256;DHT22;26989;45.524;10.938;2023-08-30T12:32:12;24.20;99.90
41256;DHT22;26989;45.524;10.938;2023-08-30T12:34:38;24.30;99.90
41256;DHT22;26989;45.524;10.938;2023-08-30T12:37:05;24.40;99.90
41256;DHT22;26989;45.524;10.938;2023-08-30T12:39:32;24.50;99.90
41256;DHT22;26989;45.524;10.938;2023-08-30T12:41:59;24.60;99.90
41256;DHT22;26989;45.524;10.938;2023-08-30T12:44:26;24.40;99.90
41256;DHT22;26989;45.524;10.938;2023-08-30T12:46:53;24.30;99.90
41256;DHT22;26989;45.524;10.938;2023-08-30T12:49:20;24.20;99.90
41256;DHT22;26989;45.524;10.938;2023-08-30T12:51:47;24.20;99.90
41256;DHT22;26989;45.524;10.938;2023-08-30T12:54:14;24.30;99.90
41256;DHT22;26989;45.524;10.938;2023-08-30T12:56:41;24.10;99.90
41256;DHT22;26989;45.524;10.938;2023-08-30T12:59:08;24.10;99.90
41256;DHT22;26989;45.524;10.938;2023-08-30T13:01:35;24.10;99.90
41256;DHT22;26989;45.524;10.938;2023-08-30T13:04:05;23.90;99.90
41256;DHT22;26989;45.524;10.938;2023-08-30T13:06:32;23.80;99.90
41256;DHT22;26989;45.524;10.938;2023-08-30T13:08:59;23.70;99.90
41256;DHT22;26989;45.524;10.938;2023-08-30T13:11:26;23.70;99.90
41256;DHT22;26989;45.524;10.938;2023-08-30T13:13:55;23.50;99.90
41256;DHT22;26989;45.524;10.938;2023-08-30T13:16:24;23.40;99.90
41256;DHT22;26989;45.524;10.938;2023-08-30T13:18:51;23.80;99.90
41256;DHT22;26989;45.524;10.938;2023-08-30T13:21:18;24.20;99.90
41256;DHT22;26989;45.524;10.938;2023-08-30T13:23:56;23.80;99.90
41256;DHT22;26989;45.524;10.938;2023-08-30T13:26:23;24.00;99.90
41256;DHT22;26989;45.524;10.938;2023-08-30T13:28:50;23.30;99.90
41256;DHT22;26989;45.524;10.938;2023-08-30T13:31:17;23.50;99.90
41256;DHT22;26989;45.524;10.938;2023-08-30T13:33:44;23.80;99.90
41256;DHT22;26989;45.524;10.938;2023-08-30T13:36:11;24.20;99.90
41256;DHT22;26989;45.524;10.938;2023-08-30T13:38:38;23.70;99.90
41256;DHT22;26989;45.524;10.938;2023-08-30T13:41:05;24.00;99.90
41256;DHT22;26989;45.524;10.938;2023-08-30T13:43:32;23.70;99.90
41256;DHT22;26989;45.524;10.938;2023-08-30T13:46:00;23.60;99.90
41256;DHT22;26989;45.524;10.938;2023-08-30T13:48:27;23.90;99.90
41256;DHT22;26989;45.524;10.938;2023-08-30T13:50:54;24.20;99.90
41256;DHT22;26989;45.524;10.938;2023-08-30T13:53:21;24.40;99.90
41256;DHT22;26989;45.524;10.938;2023-08-30T13:55:48;24.40;99.90
41256;DHT22;26989;45.524;10.938;2023-08-30T13:58:15;23.90;99.90
41256;DHT22;26989;45.524;10.938;2023-08-30T14:00:44;24.20;99.90
41256;DHT22;26989;45.524;10.938;2023-08-30T14:03:11;24.50;99.90
41256;DHT22;26989;45.524;10.938;2023-08-30T14:05:39;24.70;99.90
41256;DHT22;26989;45.524;10.938;2023-08-30T14:08:07;25.00;99.90
41256;DHT22;26989;45.524;10.938;2023-08-30T14:10:34;24.20;99.90
41256;DHT22;26989;45.524;10.938;2023-08-30T14:13:01;24.00;99.90
41256;DHT22;26989;45.524;10.938;2023-08-30T14:15:28;23.80;99.90
41256;DHT22;26989;45.524;10.938;2023-08-30T14:17:55;24.40;99.90
41256;DHT22;26989;45.524;10.938;2023-08-30T14:20:22;24.70;99.90
41256;DHT22;26989;45.524;10.938;2023-08-30T14:22:49;24.70;99.90
41256;DHT22;26989;45.524;10.938;2023-08-30T14:25:16;24.70;99.90
41256;DHT22;26989;45.524;10.938;2023-08-30T14:27:43;24.90;99.90
41256;DHT22;26989;45.524;10.938;2023-08-30T14:30:10;24.90;99.90
41256;DHT22;26989;45.524;10.938;2023-08-30T14:32:40;24.40;99.90
41256;DHT22;26989;45.524;10.938;2023-08-30T14:35:08;24.40;99.90
41256;DHT22;26989;45.524;10.938;2023-08-30T14:37:35;24.30;99.90
41256;DHT22;26989;45.524;10.938;2023-08-30T14:40:06;24.40;99.90
41256;DHT22;26989;45.524;10.938;2023-08-30T14:42:34;24.30;99.90
41256;DHT22;26989;45.524;10.938;2023-08-30T14:45:01;24.90;99.90
41256;DHT22;26989;45.524;10.938;2023-08-30T14:47:30;24.90;99.90
41256;DHT22;26989;45.524;10.938;2023-08-30T14:49:57;24.50;99.90
41256;DHT22;26989;45.524;10.938;2023-08-30T14:52:24;24.50;99.90
41256;DHT22;26989;45.524;10.938;2023-08-30T14:54:51;24.80;99.90
41256;DHT22;26989;45.524;10.938;2023-08-30T14:57:18;25.10;99.90
41256;DHT22;26989;45.524;10.938;2023-08-30T14:59:46;25.10;99.90
41256;DHT22;26989;45.524;10.938;2023-08-30T15:02:14;25.10;99.90
41256;DHT22;26989;45.524;10.938;2023-08-30T15:04:41;25.10;99.90
41256;DHT22;26989;45.524;10.938;2023-08-30T15:07:08;24.90;99.90
41256;DHT22;26989;45.524;10.938;2023-08-30T15:09:35;24.80;99.90
41256;DHT22;26989;45.524;10.938;2023-08-30T15:12:02;24.60;99.90
41256;DHT22;26989;45.524;10.938;2023-08-30T15:14:31;24.20;99.90
41256;DHT22;26989;45.524;10.938;2023-08-30T15:16:59;24.40;99.90
41256;DHT22;26989;45.524;10.938;2023-08-30T15:19:26;24.50;99.90
41256;DHT22;26989;45.524;10.938;2023-08-30T15:21:53;24.50;99.90
41256;DHT22;26989;45.524;10.938;2023-08-30T15:24:19;24.60;99.90
41256;DHT22;26989;45.524;10.938;2023-08-30T15:26:46;24.50;99.90
41256;DHT22;26989;45.524;10.938;2023-08-30T15:29:15;24.50;99.90
41256;DHT22;26989;45.524;10.938;2023-08-30T15:31:42;24.30;99.90
41256;DHT22;26989;45.524;10.938;2023-08-30T15:34:09;24.40;99.90
41256;DHT22;26989;45.524;10.938;2023-08-30T15:36:36;24.40;99.90
41256;DHT22;26989;45.524;10.938;2023-08-30T15:39:03;24.50;99.90